Emigsville, Pennsylvania
Current Conditions -  °F | °C
As of 10:53 PM on Tuesday 27 Jan 2015 (Local Time) from KTHV Reporting Station
Clear Clear  
Wind Chill: 14°   Ceiling: Unl
Heat Index: 22°   Visibility: 10mi
Dew Point:   Wind: 6mph
Humidity: 51%   Direction: 30°NNE
Pressure: 29.95"   Gusts: NA
Location:  40.01°N, 76.73°W
Report Text: KTHV 280353Z AUTO 03005KT 10SM CLR M06/M14 A2995 RMK AO2 SLP151 T10561144
Loading
Personal Weather Stations






























Interactive Weather Map New forecast layout! Learn more

10-Day Weather Forecast

Advertisements
Track Severe Weather on mobile